createdAt,value
2018-09-22T00:02:06.856Z,29.93
2018-09-22T00:04:35.340Z,21.10
2018-09-22T00:07:03.955Z,21.57
2018-09-22T00:09:32.356Z,27.70
2018-09-22T00:12:00.764Z,39.07
2018-09-22T00:14:29.156Z,40.13
2018-09-22T00:16:57.539Z,41.07
2018-09-22T00:19:26.074Z,37.00
2018-09-22T00:21:54.530Z,45.30
2018-09-22T00:24:22.994Z,40.57
2018-09-22T00:26:51.555Z,39.30
2018-09-22T00:29:19.935Z,39.33
2018-09-22T00:31:48.308Z,41.13
2018-09-22T00:34:16.700Z,41.57
2018-09-22T00:36:45.074Z,40.53
2018-09-22T00:39:13.568Z,37.30
2018-09-22T00:41:41.952Z,37.87
2018-09-22T00:44:10.857Z,35.87
2018-09-22T00:46:39.310Z,34.23
2018-09-22T00:49:07.807Z,32.77
2018-09-22T00:51:36.196Z,34.67
2018-09-22T00:54:04.911Z,36.37
2018-09-22T00:56:33.335Z,35.67
2018-09-22T00:59:01.815Z,37.07
2018-09-22T01:01:30.259Z,40.70
2018-09-22T01:03:58.745Z,41.90
2018-09-22T01:06:27.203Z,31.43
2018-09-22T01:08:55.558Z,25.27
2018-09-22T01:11:23.959Z,20.73
2018-09-22T01:13:52.432Z,19.60
2018-09-22T01:16:20.851Z,18.93
2018-09-22T01:18:49.251Z,17.67
2018-09-22T01:21:17.653Z,17.53
2018-09-22T01:23:46.242Z,16.77
2018-09-22T01:26:14.647Z,18.07
2018-09-22T01:28:43.081Z,18.23
2018-09-22T01:31:11.480Z,22.37
2018-09-22T01:33:39.882Z,30.37
2018-09-22T01:36:08.271Z,32.07
2018-09-22T01:38:36.698Z,31.20
2018-09-22T01:41:05.083Z,28.73
2018-09-22T01:43:33.459Z,25.83
2018-09-22T01:46:01.943Z,23.40
2018-09-22T01:48:30.344Z,23.87
2018-09-22T01:50:58.950Z,21.40
2018-09-22T01:53:27.362Z,23.00
2018-09-22T01:55:55.768Z,21.20
2018-09-22T01:58:24.144Z,21.60
2018-09-22T02:00:52.538Z,18.67
2018-09-22T02:03:20.992Z,17.07
2018-09-22T02:05:49.465Z,16.47
2018-09-22T02:08:20.575Z,20.63
2018-09-22T02:10:49.228Z,20.67
2018-09-22T02:13:17.747Z,29.37
2018-09-22T02:15:46.183Z,37.43
2018-09-22T02:18:14.592Z,39.63
2018-09-22T02:20:42.971Z,29.67
2018-09-22T02:23:11.415Z,29.93
2018-09-22T02:25:39.840Z,28.63
2018-09-22T02:28:08.259Z,31.77
2018-09-22T02:30:36.795Z,29.50
2018-09-22T02:33:05.232Z,38.60
2018-09-22T02:35:33.640Z,40.37
2018-09-22T02:38:02.159Z,52.33
2018-09-22T02:40:30.559Z,50.13
2018-09-22T02:42:58.962Z,48.90
2018-09-22T02:45:27.460Z,50.20
2018-09-22T02:47:55.840Z,50.63
2018-09-22T02:50:24.363Z,50.13
2018-09-22T02:52:52.974Z,48.93
2018-09-22T02:55:21.432Z,47.03
2018-09-22T02:57:49.991Z,48.03
2018-09-22T03:00:18.404Z,46.73
2018-09-22T03:02:46.911Z,47.53
2018-09-22T03:05:15.438Z,45.60
2018-09-22T03:07:43.870Z,45.33
2018-09-22T03:10:12.411Z,64.10
2018-09-22T03:12:40.786Z,63.47
2018-09-22T03:15:09.322Z,49.93
2018-09-22T03:17:37.669Z,35.67
2018-09-22T03:20:06.050Z,32.00
2018-09-22T03:22:34.464Z,33.60
2018-09-22T03:25:05.324Z,33.10
2018-09-22T03:27:33.791Z,32.17
2018-09-22T03:30:02.183Z,30.87
2018-09-22T03:32:30.587Z,29.00
2018-09-22T03:34:58.987Z,26.30
2018-09-22T03:37:27.372Z,26.37
2018-09-22T03:39:55.799Z,25.27
2018-09-22T03:42:24.219Z,25.10
2018-09-22T03:44:52.648Z,22.97
2018-09-22T03:47:21.059Z,22.00
2018-09-22T03:49:49.446Z,22.17
2018-09-22T03:52:17.828Z,22.20
2018-09-22T03:54:46.253Z,20.87
2018-09-22T03:57:14.781Z,19.37
2018-09-22T03:59:43.264Z,19.00
2018-09-22T04:02:11.704Z,18.23
2018-09-22T04:04:40.189Z,17.70
2018-09-22T04:07:08.591Z,17.47
2018-09-22T04:09:37.021Z,17.20
2018-09-22T04:12:05.443Z,16.03
2018-09-22T04:14:33.844Z,15.17
2018-09-22T04:17:02.260Z,15.50
2018-09-22T04:19:30.853Z,14.90
2018-09-22T04:21:59.444Z,13.67
2018-09-22T04:24:27.879Z,13.93
2018-09-22T04:26:56.355Z,13.53
2018-09-22T04:29:24.791Z,12.23
2018-09-22T04:31:53.293Z,12.00
2018-09-22T04:34:21.765Z,11.10
2018-09-22T04:36:50.297Z,10.57
2018-09-22T04:39:18.726Z,9.90
2018-09-22T04:41:47.711Z,9.87
2018-09-22T04:44:16.135Z,9.30
2018-09-22T04:46:44.543Z,9.30
2018-09-22T04:49:12.955Z,9.70
2018-09-22T04:51:41.423Z,8.07
2018-09-22T04:54:09.883Z,8.83
2018-09-22T04:56:38.276Z,7.73
2018-09-22T04:59:06.813Z,8.03
2018-09-22T05:01:35.223Z,7.90
2018-09-22T05:04:03.651Z,7.10
2018-09-22T05:06:32.168Z,7.37
2018-09-22T05:09:00.604Z,7.03
2018-09-22T05:11:29.117Z,7.73
2018-09-22T05:13:57.531Z,6.70
2018-09-22T05:16:25.920Z,6.73
2018-09-22T05:18:54.546Z,5.53
2018-09-22T05:21:22.976Z,6.10
2018-09-22T05:23:51.368Z,5.90
2018-09-22T05:26:19.883Z,5.90
2018-09-22T05:28:48.311Z,5.57
2018-09-22T05:31:16.808Z,5.40
2018-09-22T05:33:45.243Z,5.27
2018-09-22T05:36:13.642Z,5.30
2018-09-22T05:38:42.135Z,4.40
2018-09-22T05:41:10.656Z,4.50
2018-09-22T05:43:39.068Z,4.47
2018-09-22T05:46:07.786Z,4.73
2018-09-22T05:48:36.225Z,4.23
2018-09-22T05:51:04.668Z,3.90
2018-09-22T05:53:33.119Z,4.20
2018-09-22T05:56:01.520Z,4.53
2018-09-22T05:58:29.919Z,3.93
2018-09-22T06:00:58.360Z,3.37
2018-09-22T06:03:26.965Z,3.73
2018-09-22T06:05:55.351Z,3.90
2018-09-22T06:08:23.777Z,3.17
2018-09-22T06:10:52.219Z,3.37
2018-09-22T06:13:20.639Z,3.43
2018-09-22T06:15:49.207Z,3.07
2018-09-22T06:18:17.651Z,3.17
2018-09-22T06:20:46.039Z,3.20
2018-09-22T06:23:14.562Z,3.10
2018-09-22T06:25:42.954Z,2.70
2018-09-22T06:28:11.385Z,3.07
2018-09-22T06:30:39.862Z,2.83
2018-09-22T06:33:08.341Z,3.10
2018-09-22T06:35:36.755Z,2.70
2018-09-22T06:38:05.152Z,2.57
2018-09-22T06:40:33.598Z,2.80
2018-09-22T06:43:02.008Z,2.97
2018-09-22T06:45:30.433Z,2.93
2018-09-22T06:47:58.815Z,2.47
2018-09-22T06:50:27.245Z,2.33
2018-09-22T06:52:55.719Z,2.87
2018-09-22T06:55:24.279Z,2.50
2018-09-22T06:57:52.662Z,2.00
2018-09-22T07:00:21.092Z,2.20
2018-09-22T07:02:49.570Z,2.30
2018-09-22T07:05:18.009Z,2.33
2018-09-22T07:07:46.496Z,2.10
2018-09-22T07:10:14.909Z,2.10
2018-09-22T07:12:43.393Z,2.10
2018-09-22T07:15:11.868Z,2.07
2018-09-22T07:17:40.251Z,2.60
2018-09-22T07:20:08.651Z,2.10
2018-09-22T07:22:42.379Z,1.97
2018-09-22T07:25:10.928Z,2.03
2018-09-22T07:27:39.256Z,2.00
2018-09-22T07:30:07.682Z,1.70
2018-09-22T07:32:36.071Z,2.10
2018-09-22T07:35:04.544Z,1.90
2018-09-22T07:37:33.045Z,1.57
2018-09-22T07:40:01.549Z,1.53
2018-09-22T07:42:30.074Z,1.73
2018-09-22T07:44:58.475Z,1.57
2018-09-22T07:47:27.133Z,1.50
2018-09-22T07:49:55.539Z,1.83
2018-09-22T07:52:24.040Z,1.80
2018-09-22T07:54:52.485Z,1.70
2018-09-22T07:57:20.901Z,1.70
2018-09-22T07:59:49.306Z,1.60
2018-09-22T08:02:17.688Z,2.33
2018-09-22T08:04:46.138Z,3.70
2018-09-22T08:07:14.597Z,10.13
2018-09-22T08:09:43.030Z,12.27
2018-09-22T08:12:11.485Z,14.20
2018-09-22T08:14:39.903Z,14.97
2018-09-22T08:17:08.362Z,15.47
2018-09-22T08:19:36.834Z,14.43
2018-09-22T08:22:05.268Z,13.07
2018-09-22T08:24:33.734Z,12.87
2018-09-22T08:27:02.167Z,12.63
2018-09-22T08:29:30.568Z,12.70
2018-09-22T08:31:59.093Z,12.77
2018-09-22T08:34:27.497Z,11.40
2018-09-22T08:36:56.098Z,9.90
2018-09-22T08:39:24.441Z,9.87
2018-09-22T08:41:52.873Z,9.80
2018-09-22T08:44:21.294Z,8.97
2018-09-22T08:46:49.712Z,8.47
2018-09-22T08:49:18.153Z,8.43
2018-09-22T08:51:46.641Z,8.03
2018-09-22T08:54:15.084Z,7.90
2018-09-22T08:56:43.676Z,7.50
2018-09-22T08:59:12.161Z,7.00
2018-09-22T09:01:40.637Z,7.00
2018-09-22T09:04:09.072Z,5.90
2018-09-22T09:06:37.512Z,6.47
2018-09-22T09:09:07.519Z,5.60
2018-09-22T09:11:36.002Z,6.20
2018-09-22T09:14:04.472Z,5.80
2018-09-22T09:16:32.857Z,6.00
2018-09-22T09:19:01.535Z,5.20
2018-09-22T09:21:30.568Z,5.10
2018-09-22T09:23:59.025Z,5.17
2018-09-22T09:26:27.419Z,5.37
2018-09-22T09:28:55.827Z,4.63
2018-09-22T09:31:24.248Z,4.20
2018-09-22T09:33:52.717Z,4.63
2018-09-22T09:36:21.357Z,3.77
2018-09-22T09:38:52.904Z,4.10
2018-09-22T09:41:21.329Z,3.97
2018-09-22T09:43:49.867Z,4.30
2018-09-22T09:46:18.314Z,3.60
2018-09-22T09:48:46.787Z,3.27
2018-09-22T09:51:15.212Z,3.50
2018-09-22T09:53:43.621Z,3.40
2018-09-22T09:56:12.021Z,3.57
2018-09-22T09:58:40.427Z,2.70
2018-09-22T10:01:08.829Z,10.30
2018-09-22T10:03:37.372Z,23.73
2018-09-22T10:06:05.812Z,38.47
2018-09-22T10:08:34.481Z,40.13
2018-09-22T10:11:02.846Z,30.10
2018-09-22T10:13:31.257Z,29.87
2018-09-22T10:15:59.645Z,26.23
2018-09-22T10:18:28.064Z,24.77
2018-09-22T10:20:56.465Z,25.70
2018-09-22T10:23:24.887Z,26.43
2018-09-22T10:25:53.286Z,22.97
2018-09-22T10:28:21.774Z,28.53
2018-09-22T10:30:50.238Z,34.37
2018-09-22T10:33:18.696Z,39.53
2018-09-22T10:35:47.116Z,35.57
2018-09-22T10:38:15.623Z,42.57
2018-09-22T10:40:44.072Z,36.17
2018-09-22T10:43:12.840Z,37.60
2018-09-22T10:45:41.824Z,33.93
2018-09-22T10:48:10.726Z,35.43
2018-09-22T10:50:39.609Z,34.27
2018-09-22T10:53:08.272Z,68.00
2018-09-22T10:55:37.013Z,60.30
2018-09-22T10:58:05.910Z,51.83
2018-09-22T11:00:34.299Z,48.77
2018-09-22T11:03:02.752Z,46.23
2018-09-22T11:05:34.132Z,46.13
2018-09-22T11:08:02.576Z,45.70
2018-09-22T11:10:31.039Z,68.67
2018-09-22T11:12:59.635Z,62.20
2018-09-22T11:15:28.406Z,62.40
2018-09-22T11:17:57.113Z,43.70
2018-09-22T11:20:26.311Z,48.00
2018-09-22T11:22:55.316Z,56.57
2018-09-22T11:25:24.550Z,62.67
2018-09-22T11:27:53.028Z,59.67
2018-09-22T11:30:21.484Z,51.83
2018-09-22T11:32:50.754Z,64.50
2018-09-22T11:35:19.921Z,46.10
2018-09-22T11:37:49.240Z,53.87
2018-09-22T11:40:17.770Z,69.30
2018-09-22T11:42:46.203Z,56.90
2018-09-22T11:45:14.711Z,51.87
2018-09-22T11:47:43.140Z,47.57
2018-09-22T11:50:12.265Z,42.10
2018-09-22T11:52:40.667Z,40.80
2018-09-22T11:55:09.149Z,35.93
2018-09-22T11:57:37.599Z,36.93
2018-09-22T12:00:06.879Z,34.47
2018-09-22T12:02:35.313Z,31.47
2018-09-22T12:05:03.750Z,41.43
2018-09-22T12:07:32.193Z,66.87
2018-09-22T12:10:00.699Z,73.27
2018-09-22T12:12:29.903Z,70.57
2018-09-22T12:14:59.044Z,63.77
2018-09-22T12:17:27.547Z,55.63
2018-09-22T12:19:56.421Z,57.47
2018-09-22T12:22:24.803Z,54.50
2018-09-22T12:24:53.580Z,53.53
2018-09-22T12:27:22.295Z,56.83
2018-09-22T12:29:51.022Z,54.00
2018-09-22T12:32:19.577Z,52.83
2018-09-22T12:34:48.354Z,54.40
2018-09-22T12:37:16.851Z,53.47
2018-09-22T12:39:46.706Z,50.67
2018-09-22T12:42:15.579Z,66.23
2018-09-22T12:44:44.572Z,78.37
2018-09-22T12:47:13.578Z,84.57
2018-09-22T12:49:41.985Z,87.13
2018-09-22T12:52:10.403Z,88.00
2018-09-22T12:54:38.841Z,81.10
2018-09-22T12:57:07.291Z,67.83
2018-09-22T12:59:35.713Z,64.37
2018-09-22T13:02:04.158Z,68.97
2018-09-22T13:04:32.695Z,73.47
2018-09-22T13:07:01.119Z,68.93
2018-09-22T13:09:29.550Z,69.30
2018-09-22T13:11:57.981Z,63.53
2018-09-22T13:14:26.423Z,80.37
2018-09-22T13:16:54.974Z,76.00
2018-09-22T13:19:23.663Z,64.83
2018-09-22T13:21:52.119Z,57.00
2018-09-22T13:24:21.624Z,46.30
2018-09-22T13:26:50.256Z,41.83
2018-09-22T13:29:21.910Z,42.13
2018-09-22T13:31:50.684Z,42.40
2018-09-22T13:34:20.072Z,40.17
2018-09-22T13:36:48.609Z,39.63
2018-09-22T13:39:17.064Z,38.87
2018-09-22T13:41:45.468Z,39.03
2018-09-22T13:44:14.049Z,37.00
2018-09-22T13:46:42.477Z,44.50
2018-09-22T13:49:10.968Z,44.67
2018-09-22T13:51:40.438Z,44.53
2018-09-22T13:54:09.012Z,58.77
2018-09-22T13:56:37.453Z,65.27
2018-09-22T13:59:07.715Z,71.87
2018-09-22T14:01:36.180Z,85.43
2018-09-22T14:04:04.992Z,72.87
2018-09-22T14:06:33.498Z,71.97
2018-09-22T14:09:02.393Z,75.67
2018-09-22T14:11:31.981Z,72.43
2018-09-22T14:14:00.410Z,78.33
2018-09-22T14:16:28.936Z,74.57
2018-09-22T14:18:57.586Z,72.50
2018-09-22T14:21:26.384Z,71.87
2018-09-22T14:23:54.867Z,74.80
2018-09-22T14:26:23.359Z,74.03
2018-09-22T14:28:51.804Z,75.50
2018-09-22T14:31:20.358Z,82.10
2018-09-22T14:33:51.557Z,121.77
2018-09-22T14:36:20.220Z,445.10
2018-09-22T14:38:48.719Z,785.23
2018-09-22T14:41:17.131Z,791.93
2018-09-22T14:43:45.573Z,954.50
2018-09-22T14:46:14.015Z,906.23
2018-09-22T14:48:42.653Z,914.70
2018-09-22T14:51:11.049Z,951.70
2018-09-22T14:53:39.492Z,986.53
2018-09-22T14:56:07.931Z,984.23
2018-09-22T14:58:36.431Z,987.80
2018-09-22T15:01:06.418Z,971.87
2018-09-22T15:03:35.107Z,970.17
2018-09-22T15:06:03.544Z,791.53
2018-09-22T15:08:32.476Z,418.27
2018-09-22T15:11:00.974Z,393.10
2018-09-22T15:13:29.495Z,494.87
2018-09-22T15:15:57.940Z,501.43
2018-09-22T15:18:26.420Z,513.53
2018-09-22T15:20:54.890Z,501.83
2018-09-22T15:23:23.613Z,471.63
2018-09-22T15:25:52.411Z,473.73
2018-09-22T15:28:21.256Z,430.30
2018-09-22T15:30:49.883Z,415.70
2018-09-22T15:33:18.700Z,408.70
2018-09-22T15:35:47.189Z,401.03
2018-09-22T15:38:15.617Z,398.97
2018-09-22T15:40:44.166Z,378.43
2018-09-22T15:43:12.584Z,372.47
2018-09-22T15:45:41.333Z,366.57
2018-09-22T15:48:10.356Z,361.57
2018-09-22T15:50:39.708Z,372.37
2018-09-22T15:53:08.370Z,347.57
2018-09-22T15:55:36.820Z,336.00
2018-09-22T15:58:05.561Z,327.63
2018-09-22T16:00:34.027Z,317.97
2018-09-22T16:03:02.424Z,305.60
2018-09-22T16:05:30.847Z,294.17
2018-09-22T16:07:59.469Z,299.17
2018-09-22T16:10:27.913Z,298.70
2018-09-22T16:12:56.616Z,288.07
2018-09-22T16:15:25.037Z,240.50
2018-09-22T16:17:53.461Z,237.20
2018-09-22T16:20:21.895Z,231.63
2018-09-22T16:22:50.614Z,221.30
2018-09-22T16:25:19.238Z,213.50
2018-09-22T16:27:47.751Z,197.80
2018-09-22T16:30:16.322Z,190.00
2018-09-22T16:32:44.782Z,183.00
2018-09-22T16:35:13.239Z,170.63
2018-09-22T16:37:41.700Z,170.23
2018-09-22T16:40:10.810Z,167.80
2018-09-22T16:42:39.835Z,163.37
2018-09-22T16:45:08.481Z,159.03
2018-09-22T16:47:36.880Z,153.43
2018-09-22T16:50:05.375Z,152.43
2018-09-22T16:52:33.818Z,149.50
2018-09-22T16:55:02.255Z,148.80
2018-09-22T16:57:30.693Z,140.60
2018-09-22T16:59:59.151Z,138.43
2018-09-22T17:02:27.742Z,132.03
2018-09-22T17:04:56.203Z,133.10
2018-09-22T17:07:24.606Z,132.80
2018-09-22T17:09:53.019Z,137.90
2018-09-22T17:12:21.506Z,141.87
2018-09-22T17:14:50.124Z,123.17
2018-09-22T17:17:18.531Z,135.80
2018-09-22T17:19:46.926Z,136.13
2018-09-22T17:22:15.331Z,113.63
2018-09-22T17:24:43.805Z,112.07
2018-09-22T17:27:12.294Z,112.67
2018-09-22T17:29:41.203Z,116.83
2018-09-22T17:32:09.613Z,103.83
2018-09-22T17:34:38.046Z,97.97
2018-09-22T17:37:06.451Z,100.40
2018-09-22T17:39:34.906Z,96.27
2018-09-22T17:42:03.903Z,111.10
2018-09-22T17:44:32.300Z,91.10
2018-09-22T17:47:00.761Z,91.23
2018-09-22T17:49:29.185Z,123.27
2018-09-22T17:51:57.658Z,88.33
2018-09-22T17:54:26.626Z,106.50
2018-09-22T17:56:55.031Z,90.90
2018-09-22T17:59:23.465Z,93.30
2018-09-22T18:01:51.886Z,96.10
2018-09-22T18:04:20.278Z,86.20
2018-09-22T18:06:48.695Z,89.57
2018-09-22T18:09:17.245Z,92.50
2018-09-22T18:11:51.000Z,86.30
2018-09-22T18:14:19.410Z,84.13
2018-09-22T18:16:47.905Z,78.47
2018-09-22T18:19:16.259Z,72.43
2018-09-22T18:21:44.691Z,76.80
2018-09-22T18:24:13.200Z,75.03
2018-09-22T18:26:41.599Z,70.13
2018-09-22T18:29:10.102Z,67.20
2018-09-22T18:31:38.505Z,68.93
2018-09-22T18:34:07.037Z,67.20
2018-09-22T18:36:35.377Z,61.33
2018-09-22T18:39:04.849Z,68.47
2018-09-22T18:41:33.245Z,60.70
2018-09-22T18:44:01.729Z,60.33
2018-09-22T18:46:30.131Z,62.20
2018-09-22T18:48:58.648Z,59.37
2018-09-22T18:51:27.261Z,53.83
2018-09-22T18:53:55.934Z,55.10
2018-09-22T18:56:24.351Z,53.67
2018-09-22T18:58:52.817Z,57.70
2018-09-22T19:01:21.247Z,58.83
2018-09-22T19:03:49.716Z,57.97
2018-09-22T19:06:18.112Z,58.07
2018-09-22T19:08:46.550Z,56.00
2018-09-22T19:11:14.995Z,55.20
2018-09-22T19:13:53.137Z,51.23
2018-09-22T19:16:42.711Z,53.77
2018-09-22T19:19:20.274Z,54.33
2018-09-22T19:21:54.340Z,53.23
2018-09-22T19:24:27.328Z,49.03
2018-09-22T19:26:59.568Z,54.43
2018-09-22T19:29:34.629Z,43.50
2018-09-22T19:32:06.492Z,46.93
2018-09-22T19:34:38.572Z,43.40
2018-09-22T19:38:14.172Z,41.60
2018-09-22T19:40:46.371Z,39.03
2018-09-22T19:43:21.658Z,40.27
2018-09-22T19:45:51.054Z,47.83
2018-09-22T19:48:26.176Z,47.13
2018-09-22T19:50:58.840Z,48.77
2018-09-22T19:53:27.384Z,44.97
2018-09-22T19:55:55.762Z,43.60
2018-09-22T19:58:24.331Z,41.97
2018-09-22T20:00:52.791Z,40.17
2018-09-22T20:03:21.214Z,39.23
2018-09-22T20:05:49.637Z,39.33
2018-09-22T20:08:18.116Z,38.57
2018-09-22T20:10:47.278Z,38.93
2018-09-22T20:13:15.695Z,39.20
2018-09-22T20:15:44.234Z,34.83
2018-09-22T20:18:12.633Z,34.43
2018-09-22T20:20:41.032Z,33.73
2018-09-22T20:23:09.433Z,32.67
2018-09-22T20:25:37.879Z,36.77
2018-09-22T20:28:06.318Z,38.67
2018-09-22T20:30:34.737Z,38.03
2018-09-22T20:33:04.303Z,37.23
2018-09-22T20:35:34.088Z,37.17
2018-09-22T20:38:05.729Z,35.53
2018-09-22T20:40:34.119Z,36.53
2018-09-22T20:43:02.655Z,38.67
2018-09-22T20:45:31.072Z,39.90
2018-09-22T20:47:59.703Z,35.60
2018-09-22T20:50:28.429Z,46.63
2018-09-22T20:52:56.860Z,58.17
2018-09-22T20:55:25.303Z,64.07
2018-09-22T20:57:53.770Z,77.77
2018-09-22T21:00:22.264Z,66.65
2018-09-22T21:02:50.695Z,64.47
2018-09-22T21:05:21.083Z,61.60
2018-09-22T21:07:50.034Z,58.30
2018-09-22T21:10:18.604Z,56.37
2018-09-22T21:12:47.042Z,56.77
2018-09-22T21:15:15.509Z,55.50
2018-09-22T21:17:43.936Z,46.30
2018-09-22T21:20:12.421Z,47.30
2018-09-22T21:22:40.821Z,34.50
2018-09-22T21:25:09.344Z,32.30
2018-09-22T21:27:37.849Z,40.70
2018-09-22T21:30:06.404Z,42.73
2018-09-22T21:32:34.917Z,52.77
2018-09-22T21:35:03.337Z,55.67
2018-09-22T21:37:31.753Z,47.23
2018-09-22T21:40:00.741Z,40.77
2018-09-22T21:42:29.175Z,36.60
2018-09-22T21:44:57.596Z,35.30
2018-09-22T21:47:26.071Z,32.93
2018-09-22T21:49:54.390Z,33.97
2018-09-22T21:52:22.840Z,33.83
2018-09-22T21:54:55.867Z,37.87
2018-09-22T21:57:28.635Z,35.10
2018-09-22T22:00:02.115Z,27.87
2018-09-22T22:02:34.962Z,29.77
2018-09-22T22:05:08.291Z,31.43
2018-09-22T22:07:40.488Z,36.50
2018-09-22T22:10:13.929Z,41.20
2018-09-22T22:12:46.871Z,47.80
2018-09-22T22:15:20.290Z,41.03
2018-09-22T22:17:53.353Z,37.83
2018-09-22T22:20:26.519Z,37.43
2018-09-22T22:22:59.981Z,34.90
2018-09-22T22:25:33.034Z,38.97
2018-09-22T22:28:06.404Z,44.57
2018-09-22T22:30:39.903Z,44.87
2018-09-22T22:33:13.148Z,41.83
2018-09-22T22:35:46.309Z,42.97
2018-09-22T22:38:18.914Z,59.97
2018-09-22T22:40:52.191Z,55.00
2018-09-22T22:43:25.617Z,57.13
2018-09-22T22:45:58.800Z,75.57
2018-09-22T22:48:31.524Z,137.17
2018-09-22T22:51:04.318Z,120.67
2018-09-22T22:53:37.894Z,103.87
2018-09-22T22:56:11.152Z,99.97
2018-09-22T22:58:44.474Z,104.07
2018-09-22T23:01:17.535Z,94.50
2018-09-22T23:03:51.299Z,95.00
2018-09-22T23:06:24.639Z,80.10
2018-09-22T23:08:57.900Z,80.83
2018-09-22T23:11:31.430Z,81.23
2018-09-22T23:14:03.480Z,80.10
2018-09-22T23:16:36.963Z,78.47
2018-09-22T23:19:09.750Z,79.83
2018-09-22T23:21:43.226Z,79.03
2018-09-22T23:24:15.692Z,89.03
2018-09-22T23:26:48.482Z,91.60
2018-09-22T23:29:22.622Z,96.13
2018-09-22T23:31:56.004Z,93.27
2018-09-22T23:34:26.135Z,91.20
2018-09-22T23:36:59.774Z,93.03
2018-09-22T23:39:33.376Z,101.07
2018-09-22T23:42:07.107Z,107.10
2018-09-22T23:44:39.258Z,107.60
2018-09-22T23:47:10.807Z,112.83
2018-09-22T23:49:41.968Z,119.17
2018-09-22T23:52:12.730Z,115.07
2018-09-22T23:54:43.963Z,110.27
2018-09-22T23:57:13.182Z,102.93
2018-09-22T23:59:45.433Z,99.77
